Camp Meeker, California
Current Conditions -  °F | °C
As of 2:53 PM on Tuesday 25 Nov 2014 (Local Time) from KSTS Reporting Station
Few Clouds Few Clouds  
Wind Chill: 67°   Ceiling: Unl
Heat Index: 67°   Visibility: 10mi
Dew Point: 45°   Wind: 0mph
Humidity: 45%   Direction: NA
Pressure: 30.36"   Gusts: NA
Location:  38.43°N, 122.96°W
Report Text: KSTS 252253Z 00000KT 10SM FEW250 19/07 A3036 RMK AO2 SLP274 T01940072
Loading
Personal Weather Stations






























Interactive Weather Map New forecast layout! Learn more

10-Day Weather Forecast

Advertisements
Track Severe Weather on mobile